createdAt,value
2022-10-14T00:00:16.383Z,25.85
2022-10-14T00:02:49.924Z,26.92
2022-10-14T00:05:23.621Z,26.80
2022-10-14T00:07:57.123Z,26.35
2022-10-14T00:10:30.920Z,26.08
2022-10-14T00:13:06.008Z,26.40
2022-10-14T00:15:40.804Z,26.10
2022-10-14T00:18:14.416Z,26.23
2022-10-14T00:20:55.782Z,28.02
2022-10-14T00:23:29.661Z,26.40
2022-10-14T00:26:03.674Z,28.35
2022-10-14T00:28:38.582Z,29.30
2022-10-14T00:31:12.319Z,28.00
2022-10-14T00:33:46.380Z,27.98
2022-10-14T00:36:23.088Z,27.05
2022-10-14T00:38:56.737Z,27.85
2022-10-14T00:41:33.053Z,28.17
2022-10-14T00:44:29.422Z,25.73
2022-10-14T00:47:04.723Z,26.83
2022-10-14T00:49:42.080Z,26.73
2022-10-14T00:52:19.719Z,27.25
2022-10-14T00:54:57.907Z,29.02
2022-10-14T00:57:32.561Z,27.10
2022-10-14T01:00:09.141Z,27.13
2022-10-14T01:02:44.264Z,27.05
2022-10-14T01:05:20.908Z,27.73
2022-10-14T01:08:03.532Z,27.77
2022-10-14T01:10:43.802Z,27.27
2022-10-14T01:13:26.581Z,28.50
2022-10-14T01:16:10.109Z,28.33
2022-10-14T01:19:03.429Z,29.00
2022-10-14T01:21:40.263Z,28.73
2022-10-14T01:24:42.388Z,27.15
2022-10-14T01:27:27.147Z,27.25
2022-10-14T01:30:10.530Z,28.65
2022-10-14T01:32:53.958Z,27.77
2022-10-14T01:35:40.794Z,28.13
2022-10-14T01:38:19.627Z,28.25
2022-10-14T01:40:58.142Z,28.58
2022-10-14T01:43:34.180Z,28.52
2022-10-14T01:46:11.117Z,28.48
2022-10-14T01:48:48.526Z,26.38
2022-10-14T01:51:27.967Z,26.35
2022-10-14T01:54:07.337Z,27.15
2022-10-14T01:56:44.007Z,28.27
2022-10-14T01:59:21.063Z,25.23
2022-10-14T02:01:56.744Z,25.92
2022-10-14T02:04:30.417Z,26.08
2022-10-14T02:07:11.541Z,25.90
2022-10-14T02:10:03.223Z,25.17
2022-10-14T02:12:46.683Z,24.80
2022-10-14T02:15:25.782Z,25.92
2022-10-14T02:18:07.036Z,27.70
2022-10-14T02:20:46.967Z,26.17
2022-10-14T02:23:24.979Z,25.50
2022-10-14T02:26:00.122Z,26.30
2022-10-14T02:28:35.908Z,27.45
2022-10-14T02:31:14.628Z,26.88
2022-10-14T02:36:28.473Z,26.67
2022-10-14T02:39:03.092Z,28.20
2022-10-14T02:41:38.610Z,26.10
2022-10-14T02:44:12.643Z,29.42
2022-10-14T02:46:46.201Z,29.67
2022-10-14T02:49:21.490Z,28.13
2022-10-14T02:51:54.963Z,26.90
2022-10-14T02:54:28.774Z,29.40
2022-10-14T02:57:02.309Z,29.42
2022-10-14T02:59:36.046Z,29.08
2022-10-14T03:02:09.790Z,29.88
2022-10-14T03:04:45.015Z,28.92
2022-10-14T03:07:18.565Z,28.67
2022-10-14T03:09:52.934Z,29.25
2022-10-14T03:12:26.994Z,30.80
2022-10-14T03:15:00.719Z,29.17
2022-10-14T03:17:34.485Z,29.73
2022-10-14T03:20:10.716Z,28.52
2022-10-14T03:22:44.322Z,29.65
2022-10-14T03:25:19.107Z,30.27
2022-10-14T03:27:52.669Z,31.23
2022-10-14T03:30:26.506Z,31.38
2022-10-14T03:33:00.083Z,31.48
2022-10-14T03:35:35.697Z,31.85
2022-10-14T03:38:09.354Z,32.28
2022-10-14T03:40:43.134Z,31.23
2022-10-14T03:43:16.965Z,31.40
2022-10-14T03:45:50.816Z,31.38
2022-10-14T03:48:24.481Z,30.15
2022-10-14T03:50:59.594Z,30.98
2022-10-14T03:53:33.281Z,29.60
2022-10-14T03:56:07.705Z,31.38
2022-10-14T03:58:41.244Z,30.85
2022-10-14T04:01:15.063Z,30.27
2022-10-14T04:03:48.612Z,29.90
2022-10-14T04:06:23.705Z,31.20
2022-10-14T04:08:57.197Z,30.13
2022-10-14T04:11:31.133Z,31.10
2022-10-14T04:14:05.098Z,30.33
2022-10-14T04:16:38.990Z,31.17
2022-10-14T04:19:12.620Z,31.38
2022-10-14T04:21:47.690Z,32.60
2022-10-14T04:24:21.875Z,29.05
2022-10-14T04:26:55.770Z,30.15
2022-10-14T04:29:29.396Z,30.08
2022-10-14T04:32:03.074Z,29.90
2022-10-14T04:34:36.669Z,28.65
2022-10-14T04:37:12.189Z,30.73
2022-10-14T04:39:45.766Z,30.52
2022-10-14T04:42:20.129Z,30.35
2022-10-14T04:44:53.991Z,29.65
2022-10-14T04:47:27.837Z,30.33
2022-10-14T04:50:01.393Z,28.48
2022-10-14T04:52:36.787Z,29.88
2022-10-14T04:55:10.719Z,30.27
2022-10-14T04:57:44.807Z,29.45
2022-10-14T05:00:18.617Z,29.88
2022-10-14T05:02:52.596Z,29.25
2022-10-14T05:05:26.222Z,29.90
2022-10-14T05:08:01.465Z,29.33
2022-10-14T05:10:35.144Z,28.90
2022-10-14T05:13:09.183Z,28.92
2022-10-14T05:15:42.894Z,28.15
2022-10-14T05:18:16.637Z,29.63
2022-10-14T05:20:50.141Z,29.02
2022-10-14T05:23:25.290Z,29.08
2022-10-14T05:25:58.914Z,29.40
2022-10-14T05:28:32.833Z,29.65
2022-10-14T05:31:07.156Z,28.25
2022-10-14T05:33:41.019Z,29.08
2022-10-14T05:36:14.594Z,28.90
2022-10-14T05:38:50.701Z,30.42
2022-10-14T05:41:24.331Z,30.25
2022-10-14T05:43:58.048Z,30.13
2022-10-14T05:46:31.719Z,29.98
2022-10-14T05:49:06.104Z,31.17
2022-10-14T05:51:39.845Z,30.40
2022-10-14T05:54:15.290Z,31.27
2022-10-14T05:56:48.939Z,31.65
2022-10-14T05:59:22.785Z,30.15
2022-10-14T06:01:56.574Z,30.95
2022-10-14T06:04:30.488Z,31.77
2022-10-14T06:07:04.111Z,31.35
2022-10-14T06:09:39.581Z,31.30
2022-10-14T06:12:13.240Z,30.80
2022-10-14T06:14:47.237Z,32.42
2022-10-14T06:17:20.843Z,30.05
2022-10-14T06:19:54.673Z,31.08
2022-10-14T06:22:29.693Z,33.05
2022-10-14T06:25:05.331Z,32.33
2022-10-14T06:27:38.875Z,31.92
2022-10-14T06:30:14.049Z,31.55
2022-10-14T06:32:48.298Z,32.17
2022-10-14T06:35:22.363Z,31.75
2022-10-14T06:37:56.000Z,30.23
2022-10-14T06:40:31.166Z,31.33
2022-10-14T06:43:05.128Z,31.05
2022-10-14T06:45:38.907Z,29.95
2022-10-14T06:48:13.014Z,30.48
2022-10-14T06:50:46.765Z,29.92
2022-10-14T06:53:20.454Z,30.08
2022-10-14T06:56:00.681Z,32.38
2022-10-14T06:58:34.925Z,29.92
2022-10-14T07:01:09.281Z,30.38
2022-10-14T07:03:42.992Z,31.02
2022-10-14T07:06:16.814Z,31.52
2022-10-14T07:08:50.377Z,30.98
2022-10-14T07:11:25.526Z,30.35
2022-10-14T07:13:59.282Z,30.80
2022-10-14T07:16:33.306Z,31.17
2022-10-14T07:19:06.856Z,30.42
2022-10-14T07:21:41.951Z,30.80
2022-10-14T07:24:15.529Z,31.38
2022-10-14T07:26:50.922Z,30.52
2022-10-14T07:29:24.760Z,31.90
2022-10-14T07:31:58.586Z,32.42
2022-10-14T07:34:33.653Z,31.40
2022-10-14T07:37:07.442Z,31.83
2022-10-14T07:39:41.096Z,32.15
2022-10-14T07:42:16.331Z,33.03
2022-10-14T07:44:50.304Z,34.47
2022-10-14T07:47:24.379Z,35.42
2022-10-14T07:49:58.192Z,33.03
2022-10-14T07:52:31.895Z,33.92
2022-10-14T07:55:07.095Z,35.78
2022-10-14T07:57:42.293Z,35.10
2022-10-14T08:00:15.966Z,33.83
2022-10-14T08:02:49.811Z,35.55
2022-10-14T08:05:37.557Z,35.60
2022-10-14T08:08:12.795Z,33.90
2022-10-14T08:10:46.577Z,34.10
2022-10-14T08:13:21.760Z,33.22
2022-10-14T08:15:55.520Z,33.15
2022-10-14T08:18:29.601Z,33.70
2022-10-14T08:21:03.473Z,34.22
2022-10-14T08:23:37.200Z,34.78
2022-10-14T08:26:21.039Z,32.60
2022-10-14T08:28:56.381Z,32.85
2022-10-14T08:31:30.674Z,31.92
2022-10-14T08:34:05.005Z,30.67
2022-10-14T08:36:38.695Z,30.15
2022-10-14T08:39:12.355Z,28.33
2022-10-14T08:42:30.261Z,27.45
2022-10-14T08:45:11.775Z,26.90
2022-10-14T08:47:47.443Z,26.30
2022-10-14T08:50:29.112Z,26.00
2022-10-14T08:53:07.508Z,24.38
2022-10-14T08:55:44.514Z,23.63
2022-10-14T08:58:23.627Z,25.10
2022-10-14T09:01:02.715Z,23.85
2022-10-14T09:03:37.038Z,23.83
2022-10-14T09:06:16.434Z,23.33
2022-10-14T09:08:51.553Z,22.65
2022-10-14T09:11:25.549Z,23.70
2022-10-14T09:14:02.070Z,22.67
2022-10-14T09:16:40.729Z,23.25
2022-10-14T09:19:24.464Z,22.77
2022-10-14T09:22:00.844Z,21.98
2022-10-14T09:24:36.595Z,21.70
2022-10-14T09:27:16.269Z,20.75
2022-10-14T09:29:53.054Z,21.88
2022-10-14T09:32:32.751Z,22.60
2022-10-14T09:35:15.555Z,22.73
2022-10-14T09:37:49.333Z,23.25
2022-10-14T09:40:30.726Z,22.02
2022-10-14T09:43:14.070Z,21.67
2022-10-14T09:45:51.114Z,27.77
2022-10-14T09:48:37.765Z,21.27
2022-10-14T09:51:19.403Z,20.27
2022-10-14T09:53:55.514Z,21.23
2022-10-14T09:56:31.766Z,22.15
2022-10-14T09:59:16.272Z,21.27
2022-10-14T10:01:51.831Z,22.15
2022-10-14T10:04:33.379Z,21.10
2022-10-14T10:07:28.626Z,20.67
2022-10-14T10:10:05.127Z,21.85
2022-10-14T10:12:41.639Z,20.85
2022-10-14T10:15:21.265Z,21.27
2022-10-14T10:17:54.908Z,21.88
2022-10-14T10:20:33.593Z,20.50
2022-10-14T10:23:24.992Z,22.45
2022-10-14T10:26:16.058Z,22.15
2022-10-14T10:28:50.685Z,20.85
2022-10-14T10:32:03.552Z,20.50
2022-10-14T10:35:15.564Z,20.88
2022-10-14T10:38:05.670Z,20.85
2022-10-14T10:40:42.281Z,20.80
2022-10-14T10:43:57.195Z,19.45
2022-10-14T10:46:51.651Z,20.30
2022-10-14T10:49:50.438Z,20.35
2022-10-14T10:52:34.573Z,21.30
2022-10-14T10:55:19.565Z,20.90
2022-10-14T10:58:07.517Z,21.27
2022-10-14T11:00:49.624Z,19.85
2022-10-14T11:03:39.095Z,19.60
2022-10-14T11:06:38.652Z,19.67
2022-10-14T11:09:40.927Z,19.33
2022-10-14T11:12:24.905Z,19.02
2022-10-14T11:15:21.286Z,18.40
2022-10-14T11:18:02.527Z,18.77
2022-10-14T11:20:47.876Z,18.88
2022-10-14T11:23:38.105Z,18.90
2022-10-14T11:29:26.018Z,19.50
2022-10-14T11:32:06.412Z,19.23
2022-10-14T11:34:44.289Z,18.17
2022-10-14T11:37:29.556Z,19.30
2022-10-14T11:40:15.911Z,17.73
2022-10-14T11:43:01.851Z,18.75
2022-10-14T11:45:46.650Z,18.75
2022-10-14T11:48:30.791Z,19.65
2022-10-14T11:51:11.762Z,18.50
2022-10-14T11:53:57.968Z,17.73
2022-10-14T11:56:46.882Z,18.80
2022-10-14T11:59:38.673Z,18.67
2022-10-14T12:02:21.935Z,19.00
2022-10-14T12:05:04.057Z,17.60
2022-10-14T12:07:43.944Z,19.23
2022-10-14T12:10:26.855Z,18.02
2022-10-14T12:13:07.763Z,18.98
2022-10-14T12:15:45.935Z,17.85
2022-10-14T12:18:21.807Z,19.52
2022-10-14T12:21:06.413Z,20.85
2022-10-14T12:23:46.905Z,19.52
2022-10-14T12:26:46.609Z,19.38
2022-10-14T12:29:23.756Z,18.20
2022-10-14T12:32:20.937Z,17.15
2022-10-14T12:35:01.637Z,16.35
2022-10-14T12:37:52.289Z,16.85
2022-10-14T12:40:29.070Z,15.80
2022-10-14T12:43:06.127Z,15.43
2022-10-14T12:45:50.290Z,14.82
2022-10-14T12:48:26.280Z,15.95
2022-10-14T12:51:12.087Z,15.05
2022-10-14T12:54:05.869Z,14.50
2022-10-14T12:56:44.248Z,13.02
2022-10-14T12:59:25.480Z,11.18
2022-10-14T13:02:04.242Z,10.40
2022-10-14T13:04:37.878Z,10.13
2022-10-14T13:07:47.562Z,9.90
2022-10-14T13:10:50.685Z,10.52
2022-10-14T13:14:00.669Z,9.40
2022-10-14T13:16:57.203Z,9.85
2022-10-14T13:19:49.976Z,9.95
2022-10-14T13:22:40.563Z,10.07
2022-10-14T13:25:20.523Z,9.32
2022-10-14T13:28:11.371Z,9.68
2022-10-14T13:30:56.248Z,10.50
2022-10-14T13:33:37.960Z,10.15
2022-10-14T13:36:19.980Z,10.05
2022-10-14T13:38:59.768Z,10.80
2022-10-14T13:41:34.654Z,10.40
2022-10-14T13:44:11.781Z,11.80
2022-10-14T13:46:48.544Z,11.35
2022-10-14T13:49:28.694Z,10.38
2022-10-14T13:52:07.929Z,10.43
2022-10-14T14:00:41.988Z,11.43
2022-10-14T14:03:22.736Z,9.60
2022-10-14T14:05:57.809Z,10.93
2022-10-14T14:08:40.366Z,10.98
2022-10-14T14:11:21.619Z,11.82
2022-10-14T14:14:01.188Z,11.40
2022-10-14T14:16:37.405Z,12.00
2022-10-14T14:19:20.664Z,11.05
2022-10-14T14:22:06.719Z,12.15
2022-10-14T14:24:40.740Z,11.32
2022-10-14T14:27:18.317Z,11.30
2022-10-14T14:29:54.654Z,11.50
2022-10-14T14:32:32.229Z,11.38
2022-10-14T14:35:13.104Z,11.23
2022-10-14T14:37:55.641Z,11.93
2022-10-14T14:40:31.958Z,11.20
2022-10-14T14:43:07.138Z,11.68
2022-10-14T14:45:44.806Z,11.50
2022-10-14T14:48:19.138Z,11.95
2022-10-14T14:50:53.352Z,11.02
2022-10-14T14:53:29.911Z,11.48
2022-10-14T14:56:10.412Z,11.00
2022-10-14T14:58:52.310Z,10.55
2022-10-14T15:04:13.273Z,11.23
2022-10-14T15:06:53.095Z,11.68
2022-10-14T15:09:36.187Z,11.23
2022-10-14T15:12:17.449Z,10.07
2022-10-14T15:14:54.333Z,10.98
2022-10-14T15:17:34.199Z,11.23
2022-10-14T15:23:40.269Z,10.75
2022-10-14T15:26:25.134Z,11.55
2022-10-14T15:29:07.525Z,11.40
2022-10-14T15:31:44.955Z,11.80
2022-10-14T15:34:21.159Z,11.30
2022-10-14T15:36:55.176Z,10.75
2022-10-14T15:39:28.733Z,11.50
2022-10-14T15:42:02.484Z,10.85
2022-10-14T15:44:36.143Z,11.75
2022-10-14T15:47:23.241Z,11.13
2022-10-14T15:49:57.608Z,11.30
2022-10-14T15:52:32.531Z,11.60
2022-10-14T15:55:16.451Z,11.75
2022-10-14T15:57:52.362Z,11.52
2022-10-14T16:00:26.476Z,12.15
2022-10-14T16:03:03.616Z,11.57
2022-10-14T16:05:38.538Z,12.35
2022-10-14T16:08:14.633Z,12.65
2022-10-14T16:10:48.497Z,11.80
2022-10-14T16:13:22.304Z,11.55
2022-10-14T16:15:59.695Z,11.73
2022-10-14T16:18:34.907Z,12.40
2022-10-14T16:21:14.920Z,11.77
2022-10-14T16:23:48.931Z,11.90
2022-10-14T16:26:22.558Z,11.00
2022-10-14T16:28:56.403Z,10.90
2022-10-14T16:31:30.062Z,11.80
2022-10-14T16:34:05.179Z,10.18
2022-10-14T16:36:39.365Z,9.65
2022-10-14T16:39:14.267Z,11.10
2022-10-14T16:41:48.340Z,10.35
2022-10-14T16:44:28.239Z,10.45
2022-10-14T16:47:20.669Z,10.02
2022-10-14T16:49:57.017Z,10.07
2022-10-14T16:52:50.495Z,10.07
2022-10-14T16:55:24.716Z,10.32
2022-10-14T16:57:58.379Z,10.25
2022-10-14T17:00:32.634Z,9.75
2022-10-14T17:03:06.185Z,10.05
2022-10-14T17:05:41.393Z,10.65
2022-10-14T17:08:14.820Z,10.48
2022-10-14T17:10:48.554Z,12.30
2022-10-14T17:13:22.171Z,9.65
2022-10-14T17:16:00.405Z,10.10
2022-10-14T17:18:35.378Z,9.90
2022-10-14T17:21:12.148Z,9.95
2022-10-14T17:23:45.680Z,9.55
2022-10-14T17:26:20.239Z,9.25
2022-10-14T17:28:53.930Z,10.25
2022-10-14T17:31:28.837Z,9.95
2022-10-14T17:34:02.405Z,10.07
2022-10-14T17:36:37.644Z,11.07
2022-10-14T17:39:18.741Z,9.77
2022-10-14T17:41:58.333Z,9.52
2022-10-14T17:44:32.789Z,9.73
2022-10-14T17:47:06.640Z,8.30
2022-10-14T17:49:40.499Z,8.25
2022-10-14T17:52:17.051Z,9.05
2022-10-14T17:54:50.729Z,8.73
2022-10-14T17:57:24.643Z,8.52
2022-10-14T17:59:58.509Z,9.00
2022-10-14T18:02:32.537Z,7.82
2022-10-14T18:05:07.217Z,7.85
2022-10-14T18:07:42.368Z,8.07
2022-10-14T18:10:16.065Z,7.53
2022-10-14T18:12:49.888Z,7.63
2022-10-14T18:15:23.310Z,7.25
2022-10-14T18:17:57.381Z,6.97
2022-10-14T18:20:33.023Z,7.20
2022-10-14T18:23:08.169Z,6.28
2022-10-14T18:25:41.602Z,6.53
2022-10-14T18:28:15.512Z,6.40
2022-10-14T18:30:49.232Z,6.68
2022-10-14T18:33:22.972Z,6.25
2022-10-14T18:35:57.814Z,6.35
2022-10-14T18:38:33.256Z,6.45
2022-10-14T18:41:08.680Z,6.15
2022-10-14T18:43:42.921Z,5.78
2022-10-14T18:46:18.316Z,6.05
2022-10-14T18:48:54.579Z,5.97
2022-10-14T18:51:30.091Z,6.25
2022-10-14T18:54:08.130Z,6.28
2022-10-14T18:56:42.485Z,6.57
2022-10-14T18:59:18.617Z,6.85
2022-10-14T19:01:52.861Z,6.22
2022-10-14T19:04:27.971Z,6.20
2022-10-14T19:07:01.488Z,6.57
2022-10-14T19:09:36.815Z,6.47
2022-10-14T19:12:24.549Z,6.20
2022-10-14T19:14:58.627Z,6.65
2022-10-14T19:17:32.204Z,6.63
2022-10-14T19:20:08.312Z,6.47
2022-10-14T19:22:44.887Z,6.35
2022-10-14T19:25:20.537Z,7.10
2022-10-14T19:27:54.277Z,6.43
2022-10-14T19:30:28.162Z,6.97
2022-10-14T19:33:01.682Z,7.15
2022-10-14T19:35:35.458Z,6.80
2022-10-14T19:38:08.966Z,6.93
2022-10-14T19:40:44.130Z,7.60
2022-10-14T19:43:17.773Z,7.35
2022-10-14T19:45:51.580Z,7.18
2022-10-14T19:48:25.355Z,7.03
2022-10-14T19:51:05.993Z,7.03
2022-10-14T19:53:40.827Z,7.47
2022-10-14T19:56:15.907Z,7.68
2022-10-14T19:58:52.867Z,6.57
2022-10-14T20:01:28.696Z,6.85
2022-10-14T20:04:03.369Z,7.65
2022-10-14T20:06:39.827Z,7.28
2022-10-14T20:09:14.646Z,6.28
2022-10-14T20:11:49.761Z,6.80
2022-10-14T20:14:23.934Z,7.60
2022-10-14T20:16:57.746Z,7.40
2022-10-14T20:19:31.280Z,7.13
2022-10-14T20:22:05.464Z,7.78
2022-10-14T20:24:41.826Z,6.45
2022-10-14T20:27:20.404Z,6.53
2022-10-14T20:29:54.117Z,7.15
2022-10-14T20:32:27.846Z,6.90
2022-10-14T20:35:01.688Z,7.10
2022-10-14T20:37:35.504Z,6.97
2022-10-14T20:40:10.758Z,6.47
2022-10-14T20:42:45.959Z,6.97
2022-10-14T20:45:19.545Z,7.55
2022-10-14T20:47:54.084Z,6.32
2022-10-14T20:50:27.894Z,6.75
2022-10-14T20:53:05.107Z,7.32
2022-10-14T20:55:38.837Z,7.07
2022-10-14T20:58:14.509Z,7.90
2022-10-14T21:00:48.071Z,7.00
2022-10-14T21:03:21.826Z,6.47
2022-10-14T21:05:55.466Z,6.93
2022-10-14T21:08:29.381Z,6.90
2022-10-14T21:11:06.981Z,6.82
2022-10-14T21:13:46.386Z,7.57
2022-10-14T21:16:22.477Z,6.40
2022-10-14T21:18:58.418Z,6.72
2022-10-14T21:21:35.775Z,6.13
2022-10-14T21:24:12.452Z,6.70
2022-10-14T21:26:47.872Z,6.70
2022-10-14T21:29:25.226Z,6.28
2022-10-14T21:31:58.932Z,6.68
2022-10-14T21:34:32.770Z,6.85
2022-10-14T21:37:06.426Z,7.22
2022-10-14T21:39:40.309Z,6.68
2022-10-14T21:42:14.373Z,6.28
2022-10-14T21:44:49.630Z,5.70
2022-10-14T21:47:23.125Z,5.70
2022-10-14T21:49:57.067Z,6.10
2022-10-14T21:52:30.530Z,6.28
2022-10-14T21:55:05.991Z,6.57
2022-10-14T21:57:39.548Z,5.97
2022-10-14T22:00:15.281Z,6.32
2022-10-14T22:02:53.482Z,6.13
2022-10-14T22:05:28.403Z,5.50
2022-10-14T22:08:02.383Z,5.55
2022-10-14T22:10:44.822Z,6.50
2022-10-14T22:13:18.386Z,6.38
2022-10-14T22:15:54.108Z,6.30
2022-10-14T22:18:31.411Z,6.93
2022-10-14T22:21:10.207Z,5.95
2022-10-14T22:23:43.861Z,6.45
2022-10-14T22:26:21.554Z,6.72
2022-10-14T22:28:59.529Z,6.68
2022-10-14T22:31:35.662Z,6.18
2022-10-14T22:34:10.846Z,6.18
2022-10-14T22:36:45.166Z,6.35
2022-10-14T22:39:21.301Z,6.32
2022-10-14T22:41:55.202Z,6.57
2022-10-14T22:44:29.015Z,6.63
2022-10-14T22:47:04.408Z,7.07
2022-10-14T22:49:39.831Z,7.43
2022-10-14T22:52:14.020Z,6.82
2022-10-14T22:54:48.580Z,7.22
2022-10-14T22:57:22.578Z,7.30
2022-10-14T22:59:56.286Z,7.63
2022-10-14T23:02:31.386Z,7.60
2022-10-14T23:05:06.351Z,8.52
2022-10-14T23:07:41.170Z,7.90
2022-10-14T23:10:14.831Z,8.25
2022-10-14T23:12:49.607Z,8.65
2022-10-14T23:15:23.110Z,8.18
2022-10-14T23:18:00.411Z,8.82
2022-10-14T23:20:35.599Z,9.00
2022-10-14T23:23:09.351Z,8.77
2022-10-14T23:25:45.933Z,8.45
2022-10-14T23:28:23.244Z,8.32
2022-10-14T23:30:57.335Z,8.80
2022-10-14T23:33:33.283Z,9.20
2022-10-14T23:36:09.305Z,8.98
2022-10-14T23:38:44.467Z,8.45
2022-10-14T23:41:21.996Z,8.90
2022-10-14T23:43:57.489Z,8.90
2022-10-14T23:46:31.347Z,8.75
2022-10-14T23:49:25.085Z,9.50
2022-10-14T23:51:59.450Z,9.20
2022-10-14T23:54:33.135Z,8.88
2022-10-14T23:57:06.998Z,8.82
2022-10-14T23:59:41.546Z,10.13
